createdAt,value
2018-04-10T00:00:08.179Z,60.13
2018-04-10T00:00:48.806Z,60.22
2018-04-10T00:01:29.368Z,60.41
2018-04-10T00:02:09.945Z,60.03
2018-04-10T00:02:50.509Z,60.51
2018-04-10T00:03:31.080Z,60.32
2018-04-10T00:04:11.661Z,60.32
2018-04-10T00:04:52.239Z,60.51
2018-04-10T00:05:32.829Z,60.41
2018-04-10T00:06:13.407Z,60.89
2018-04-10T00:06:53.981Z,60.13
2018-04-10T00:07:34.548Z,60.22
2018-04-10T00:08:15.106Z,60.32
2018-04-10T00:08:55.754Z,60.22
2018-04-10T00:09:36.317Z,60.61
2018-04-10T00:10:16.896Z,60.61
2018-04-10T00:10:57.457Z,60.22
2018-04-10T00:11:38.024Z,60.22
2018-04-10T00:12:18.604Z,60.13
2018-04-10T00:12:59.173Z,60.41
2018-04-10T00:13:39.759Z,60.51
2018-04-10T00:14:20.349Z,60.8
2018-04-10T00:15:00.902Z,60.89
2018-04-10T00:15:41.462Z,60.8
2018-04-10T00:16:22.021Z,60.8
2018-04-10T00:17:02.584Z,60.51
2018-04-10T00:17:43.154Z,60.8
2018-04-10T00:18:23.721Z,60.86
2018-04-10T00:19:04.294Z,60.7
2018-04-10T00:19:44.859Z,60.41
2018-04-10T00:20:25.445Z,60.77
2018-04-10T00:21:06.011Z,61.18
2018-04-10T00:21:46.575Z,60.77
2018-04-10T00:22:27.153Z,60.96
2018-04-10T00:23:07.725Z,60.86
2018-04-10T00:23:48.336Z,61.08
2018-04-10T00:24:28.924Z,61.47
2018-04-10T00:25:09.501Z,61.34
2018-04-10T00:25:50.070Z,61.34
2018-04-10T00:26:30.624Z,61.25
2018-04-10T00:27:11.185Z,61.05
2018-04-10T00:27:51.750Z,61.05
2018-04-10T00:28:32.310Z,60.96
2018-04-10T00:29:12.871Z,61.15
2018-04-10T00:29:53.441Z,61.25
2018-04-10T00:30:34.032Z,61.05
2018-04-10T00:31:14.604Z,61.25
2018-04-10T00:31:55.189Z,60.96
2018-04-10T00:32:35.774Z,61.15
2018-04-10T00:33:16.352Z,61.34
2018-04-10T00:33:56.981Z,61.82
2018-04-10T00:34:37.558Z,61.54
2018-04-10T00:35:18.126Z,61.82
2018-04-10T00:35:58.702Z,61.15
2018-04-10T00:36:39.253Z,61.15
2018-04-10T00:37:19.830Z,61.05
2018-04-10T00:38:00.396Z,61.15
2018-04-10T00:38:40.958Z,61.63
2018-04-10T00:39:21.577Z,61.25
2018-04-10T00:40:02.137Z,61.72
2018-04-10T00:40:42.702Z,61.34
2018-04-10T00:41:23.266Z,61.72
2018-04-10T00:42:03.930Z,61.63
2018-04-10T00:42:44.491Z,62.11
2018-04-10T00:43:25.064Z,61.63
2018-04-10T00:44:05.649Z,61.72
2018-04-10T00:44:46.207Z,62.3
2018-04-10T00:45:26.780Z,62.01
2018-04-10T00:46:07.376Z,62.2
2018-04-10T00:46:47.939Z,62.3
2018-04-10T00:47:28.508Z,62.3
2018-04-10T00:48:09.075Z,62.2
2018-04-10T00:48:49.631Z,62.4
2018-04-10T00:49:30.225Z,62.2
2018-04-10T00:50:10.791Z,62.3
2018-04-10T00:50:51.356Z,62.97
2018-04-10T00:51:31.914Z,62.68
2018-04-10T00:52:12.472Z,62.49
2018-04-10T00:52:53.036Z,62.49
2018-04-10T00:53:33.657Z,62.59
2018-04-10T00:54:14.323Z,62.68
2018-04-10T00:54:54.884Z,62.97
2018-04-10T00:55:35.442Z,62.77
2018-04-10T00:56:16.029Z,62.84
2018-04-10T00:56:56.611Z,62.65
2018-04-10T00:57:37.197Z,63.13
2018-04-10T00:58:17.783Z,63.23
2018-04-10T00:58:58.359Z,62.65
2018-04-10T00:59:38.982Z,62.65
2018-04-10T01:00:19.540Z,62.65
2018-04-10T01:01:00.110Z,63.06
2018-04-10T01:01:40.755Z,63.03
2018-04-10T01:02:21.333Z,63.32
2018-04-10T01:03:01.926Z,63.32
2018-04-10T01:03:42.492Z,62.49
2018-04-10T01:04:23.051Z,63.54
2018-04-10T01:05:03.612Z,63.16
2018-04-10T01:05:44.195Z,63.23
2018-04-10T01:06:24.768Z,63.06
2018-04-10T01:07:05.318Z,63.32
2018-04-10T01:07:45.917Z,63.35
2018-04-10T01:08:26.487Z,63.03
2018-04-10T01:09:07.073Z,62.97
2018-04-10T01:09:47.803Z,63.16
2018-04-10T01:10:28.495Z,63.16
2018-04-10T01:11:09.082Z,63.26
2018-04-10T01:11:49.647Z,63.35
2018-04-10T01:12:30.243Z,63.13
2018-04-10T01:13:10.804Z,63.45
2018-04-10T01:13:51.412Z,63.23
2018-04-10T01:14:32.042Z,63.35
2018-04-10T01:15:12.604Z,63.35
2018-04-10T01:15:53.163Z,63.16
2018-04-10T01:16:33.727Z,63.35
2018-04-10T01:17:14.291Z,63.35
2018-04-10T01:17:54.912Z,62.68
2018-04-10T01:18:35.596Z,62.77
2018-04-10T01:19:16.141Z,62.94
2018-04-10T01:19:56.723Z,62.77
2018-04-10T01:20:37.310Z,62.68
2018-04-10T01:21:17.882Z,62.77
2018-04-10T01:21:58.516Z,63.45
2018-04-10T01:22:39.102Z,63.26
2018-04-10T01:23:19.666Z,63.26
2018-04-10T01:24:00.221Z,63.16
2018-04-10T01:24:40.803Z,63.26
2018-04-10T01:25:21.362Z,63.35
2018-04-10T01:26:02.003Z,63.26
2018-04-10T01:26:42.660Z,63.26
2018-04-10T01:27:23.187Z,63.06
2018-04-10T01:28:03.746Z,63.13
2018-04-10T01:28:44.329Z,63.13
2018-04-10T01:29:24.931Z,63.16
2018-04-10T01:30:05.515Z,62.97
2018-04-10T01:30:46.076Z,62.94
2018-04-10T01:31:26.645Z,62.94
2018-04-10T01:32:07.208Z,63.13
2018-04-10T01:32:47.766Z,63.42
2018-04-10T01:33:28.327Z,62.94
2018-04-10T01:34:08.888Z,63.32
2018-04-10T01:34:49.468Z,62.84
2018-04-10T01:35:30.130Z,63.03
2018-04-10T01:36:10.695Z,63.13
2018-04-10T01:36:51.263Z,62.65
2018-04-10T01:37:31.834Z,63.23
2018-04-10T01:38:12.410Z,62.84
2018-04-10T01:38:52.990Z,63.13
2018-04-10T01:39:33.568Z,63.42
2018-04-10T01:40:14.139Z,63.42
2018-04-10T01:40:54.765Z,63.23
2018-04-10T01:41:35.330Z,63.32
2018-04-10T01:42:15.907Z,63.32
2018-04-10T01:42:56.487Z,63.32
2018-04-10T01:43:37.144Z,63.51
2018-04-10T01:44:17.701Z,63.23
2018-04-10T01:44:58.276Z,63.42
2018-04-10T01:45:38.863Z,63.51
2018-04-10T01:46:19.447Z,63.6
2018-04-10T01:47:00.025Z,63.13
2018-04-10T01:47:40.600Z,63.32
2018-04-10T01:48:21.170Z,63.13
2018-04-10T01:49:01.745Z,63.03
2018-04-10T01:49:42.303Z,63.23
2018-04-10T01:50:22.865Z,63.32
2018-04-10T01:51:03.484Z,63.42
2018-04-10T01:51:44.060Z,63.32
2018-04-10T01:52:24.615Z,62.94
2018-04-10T01:53:05.196Z,63.13
2018-04-10T01:53:45.823Z,63.13
2018-04-10T01:54:26.418Z,63.42
2018-04-10T01:55:06.984Z,63.7
2018-04-10T01:55:47.550Z,63.13
2018-04-10T01:56:28.171Z,63.32
2018-04-10T01:57:08.740Z,63.8
2018-04-10T01:57:49.302Z,63.13
2018-04-10T01:58:29.861Z,63.23
2018-04-10T01:59:10.437Z,63.13
2018-04-10T01:59:51.011Z,63.13
2018-04-10T02:00:31.684Z,63.32
2018-04-10T02:01:12.251Z,63.42
2018-04-10T02:01:52.819Z,63.13
2018-04-10T02:02:33.395Z,63.13
2018-04-10T02:03:13.954Z,63.13
2018-04-10T02:03:54.585Z,63.42
2018-04-10T02:04:35.136Z,63.23
2018-04-10T02:05:15.697Z,63.32
2018-04-10T02:05:56.261Z,63.23
2018-04-10T02:06:36.859Z,63.32
2018-04-10T02:07:17.424Z,63.23
2018-04-10T02:07:58.044Z,63.23
2018-04-10T02:08:38.614Z,63.13
2018-04-10T02:09:25.743Z,63.32
2018-04-10T02:16:20.714Z,63.13
2018-04-10T02:17:01.308Z,63.03
2018-04-10T02:17:41.888Z,63.32
2018-04-10T02:18:22.467Z,63.32
2018-04-10T02:19:03.047Z,63.32
2018-04-10T02:19:43.650Z,63.23
2018-04-10T02:20:24.220Z,63.23
2018-04-10T02:21:04.796Z,63.32
2018-04-10T02:21:45.390Z,63.03
2018-04-10T02:22:25.954Z,63.51
2018-04-10T02:23:06.529Z,63.51
2018-04-10T02:23:47.092Z,63.42
2018-04-10T02:24:27.654Z,63.89
2018-04-10T02:25:08.245Z,63.32
2018-04-10T02:25:48.906Z,63.6
2018-04-10T02:26:29.622Z,63.89
2018-04-10T02:27:10.193Z,63.89
2018-04-10T02:27:50.759Z,63.7
2018-04-10T02:28:31.316Z,64.18
2018-04-10T02:29:11.871Z,64.18
2018-04-10T02:29:52.442Z,64.09
2018-04-10T02:30:33.004Z,64.09
2018-04-10T02:31:13.575Z,64.56
2018-04-10T02:31:54.151Z,64.56
2018-04-10T02:32:34.764Z,64.37
2018-04-10T02:33:15.297Z,64.28
2018-04-10T02:33:55.864Z,64.28
2018-04-10T02:34:36.396Z,64.28
2018-04-10T02:35:16.961Z,64.28
2018-04-10T02:35:57.546Z,64.37
2018-04-10T02:36:38.117Z,64.37
2018-04-10T02:37:18.678Z,64.28
2018-04-10T02:37:59.240Z,64.28
2018-04-10T02:38:39.889Z,64.28
2018-04-10T02:39:20.496Z,64.28
2018-04-10T02:40:01.086Z,64.28
2018-04-10T02:40:41.709Z,64.18
2018-04-10T02:41:22.276Z,64.09
2018-04-10T02:42:02.829Z,64.18
2018-04-10T02:42:43.441Z,64.09
2018-04-10T02:43:24.109Z,64.18
2018-04-10T02:44:04.727Z,63.96
2018-04-10T02:44:45.306Z,64.37
2018-04-10T02:45:25.883Z,64.34
2018-04-10T02:46:06.475Z,64.34
2018-04-10T02:46:47.136Z,64.25
2018-04-10T02:47:27.704Z,64.28
2018-04-10T02:48:08.270Z,64.25
2018-04-10T02:48:48.835Z,64.85
2018-04-10T02:49:29.400Z,64.25
2018-04-10T02:50:09.959Z,64.28
2018-04-10T02:50:50.566Z,64.66
2018-04-10T02:51:31.208Z,64.53
2018-04-10T02:52:11.774Z,64.62
2018-04-10T02:52:52.322Z,64.62
2018-04-10T02:53:32.898Z,64.72
2018-04-10T02:54:13.551Z,64.62
2018-04-10T02:54:54.117Z,64.34
2018-04-10T02:55:34.691Z,64.62
2018-04-10T02:56:15.255Z,64.72
2018-04-10T02:56:55.830Z,65.01
2018-04-10T02:57:36.384Z,64.62
2018-04-10T02:58:16.953Z,64.72
2018-04-10T02:58:57.509Z,64.72
2018-04-10T02:59:38.067Z,64.82
2018-04-10T03:00:18.796Z,64.53
2018-04-10T03:00:59.391Z,64.82
2018-04-10T03:01:39.962Z,64.34
2018-04-10T03:02:20.546Z,65.3
2018-04-10T03:03:01.112Z,64.62
2018-04-10T03:03:41.717Z,64.62
2018-04-10T03:04:22.420Z,64.82
2018-04-10T03:05:02.985Z,64.72
2018-04-10T03:05:43.536Z,64.34
2018-04-10T03:06:24.104Z,64.91
2018-04-10T03:07:04.680Z,64.91
2018-04-10T03:07:45.261Z,65.3
2018-04-10T03:08:25.967Z,65.39
2018-04-10T03:09:06.437Z,65.48
2018-04-10T03:09:47.011Z,65.01
2018-04-10T03:10:27.574Z,65.3
2018-04-10T03:11:08.271Z,65.3
2018-04-10T03:11:48.888Z,65.2
2018-04-10T03:12:29.456Z,65.2
2018-04-10T03:13:10.015Z,65.2
2018-04-10T03:13:50.565Z,65.2
2018-04-10T03:14:31.130Z,65.39
2018-04-10T03:15:11.689Z,65.3
2018-04-10T03:15:52.311Z,65.01
2018-04-10T03:16:32.881Z,65.01
2018-04-10T03:17:13.442Z,65.2
2018-04-10T03:17:54.001Z,65.2
2018-04-10T03:18:34.559Z,65.68
2018-04-10T03:19:15.128Z,65.39
2018-04-10T03:19:55.691Z,65.48
2018-04-10T03:20:36.363Z,65.2
2018-04-10T03:21:16.990Z,65.01
2018-04-10T03:21:57.553Z,65.58
2018-04-10T03:22:38.121Z,65.48
2018-04-10T03:23:18.709Z,65.68
2018-04-10T03:23:59.281Z,65.48
2018-04-10T03:24:39.918Z,65.68
2018-04-10T03:25:20.566Z,65.77
2018-04-10T03:26:01.120Z,65.77
2018-04-10T03:26:41.690Z,65.48
2018-04-10T03:27:22.257Z,65.77
2018-04-10T03:28:02.896Z,65.87
2018-04-10T03:28:43.511Z,65.77
2018-04-10T03:29:24.071Z,66.06
2018-04-10T03:30:04.641Z,65.77
2018-04-10T03:30:45.212Z,66.06
2018-04-10T03:31:25.791Z,66.35
2018-04-10T03:32:06.347Z,66.16
2018-04-10T03:32:46.920Z,66.16
2018-04-10T03:33:27.599Z,65.87
2018-04-10T03:34:08.167Z,65.97
2018-04-10T03:34:48.743Z,66.35
2018-04-10T03:35:29.316Z,66.35
2018-04-10T03:36:09.900Z,66.06
2018-04-10T03:36:50.471Z,65.87
2018-04-10T03:37:31.107Z,66.06
2018-04-10T03:38:11.679Z,66.06
2018-04-10T03:38:52.245Z,66.06
2018-04-10T03:39:32.814Z,65.77
2018-04-10T03:40:13.380Z,65.77
2018-04-10T03:40:54.001Z,65.97
2018-04-10T03:41:34.789Z,66.35
2018-04-10T03:42:15.410Z,65.97
2018-04-10T03:42:55.992Z,66.16
2018-04-10T03:43:36.540Z,65.97
2018-04-10T03:44:17.094Z,66.44
2018-04-10T03:44:57.717Z,66.35
2018-04-10T03:45:38.358Z,66.44
2018-04-10T03:46:18.943Z,66.63
2018-04-10T03:46:59.492Z,66.44
2018-04-10T03:47:40.054Z,66.54
2018-04-10T03:48:20.634Z,66.83
2018-04-10T03:49:01.209Z,66.54
2018-04-10T03:49:41.770Z,66.16
2018-04-10T03:50:22.332Z,66.63
2018-04-10T03:51:02.930Z,66.35
2018-04-10T03:51:43.484Z,66.54
2018-04-10T03:52:24.043Z,66.54
2018-04-10T03:53:04.615Z,66.54
2018-04-10T03:53:45.215Z,66.44
2018-04-10T03:54:25.816Z,66.83
2018-04-10T03:55:06.391Z,66.54
2018-04-10T03:55:47.013Z,66.54
2018-04-10T03:56:27.536Z,66.83
2018-04-10T03:57:08.103Z,66.63
2018-04-10T03:57:48.671Z,66.6
2018-04-10T03:58:29.542Z,66.44
2018-04-10T03:59:10.283Z,66.44
2018-04-10T03:59:51.023Z,66.54
2018-04-10T04:00:31.615Z,66.63
2018-04-10T04:01:12.209Z,66.35
2018-04-10T04:01:52.797Z,66.54
2018-04-10T04:02:33.397Z,66.63
2018-04-10T04:03:13.993Z,66.35
2018-04-10T04:03:54.582Z,66.44
2018-04-10T04:04:35.146Z,67.21
2018-04-10T04:05:15.720Z,66.92
2018-04-10T04:05:56.275Z,66.54
2018-04-10T04:06:36.886Z,66.54
2018-04-10T04:07:17.640Z,66.54
2018-04-10T04:07:58.091Z,66.6
2018-04-10T04:08:38.663Z,66.44
2018-04-10T04:09:19.230Z,66.5
2018-04-10T04:09:59.816Z,66.41
2018-04-10T04:10:40.388Z,66.41
2018-04-10T04:11:20.955Z,67.11
2018-04-10T04:12:01.537Z,66.89
2018-04-10T04:12:42.095Z,66.79
2018-04-10T04:13:22.650Z,66.92
2018-04-10T04:14:03.214Z,67.08
2018-04-10T04:14:43.781Z,66.89
2018-04-10T04:15:24.387Z,66.99
2018-04-10T04:16:04.965Z,66.89
2018-04-10T04:16:45.518Z,67.55
2018-04-10T04:17:26.068Z,67.55
2018-04-10T04:18:06.658Z,67.27
2018-04-10T04:18:47.281Z,67.18
2018-04-10T04:19:27.854Z,67.65
2018-04-10T04:20:08.420Z,67.55
2018-04-10T04:20:48.986Z,67.55
2018-04-10T04:21:29.556Z,67.36
2018-04-10T04:22:10.166Z,67.46
2018-04-10T04:22:50.902Z,67.55
2018-04-10T04:23:31.321Z,67.36
2018-04-10T04:24:11.882Z,67.55
2018-04-10T04:24:52.448Z,67.46
2018-04-10T04:25:33.061Z,67.65
2018-04-10T04:26:13.613Z,67.27
2018-04-10T04:26:54.192Z,67.36
2018-04-10T04:27:34.771Z,67.36
2018-04-10T04:28:15.335Z,67.75
2018-04-10T04:28:55.897Z,68.04
2018-04-10T04:29:36.461Z,67.65
2018-04-10T04:30:17.034Z,67.46
2018-04-10T04:30:57.704Z,67.84
2018-04-10T04:31:38.261Z,67.65
2018-04-10T04:32:18.836Z,68.04
2018-04-10T04:32:59.408Z,67.84
2018-04-10T04:33:39.978Z,67.36
2018-04-10T04:34:20.568Z,67.75
2018-04-10T04:35:01.128Z,67.75
2018-04-10T04:35:41.786Z,67.46
2018-04-10T04:36:22.515Z,67.75
2018-04-10T04:37:03.099Z,68.51
2018-04-10T04:37:43.672Z,68.8
2018-04-10T04:38:24.230Z,69.21
2018-04-10T04:39:04.831Z,69.12
2018-04-10T04:39:45.400Z,68.07
2018-04-10T04:40:26.178Z,68.07
2018-04-10T04:41:06.779Z,67.59
2018-04-10T04:41:47.360Z,66.83
2018-04-10T04:42:27.913Z,67.24
2018-04-10T04:43:08.538Z,66.67
2018-04-10T04:43:49.140Z,66.28
2018-04-10T04:44:29.711Z,65.33
2018-04-10T04:45:10.294Z,65.04
2018-04-10T04:45:50.884Z,65.33
2018-04-10T04:46:31.489Z,64.75
2018-04-10T04:47:12.100Z,64.75
2018-04-10T04:47:52.737Z,64.31
2018-04-10T04:48:33.302Z,63.93
2018-04-10T04:49:13.888Z,63.93
2018-04-10T04:49:54.444Z,63.35
2018-04-10T04:50:35.026Z,63.06
2018-04-10T04:51:15.581Z,63.06
2018-04-10T04:51:56.162Z,63.16
2018-04-10T04:52:36.966Z,63.73
2018-04-10T04:53:17.568Z,63.16
2018-04-10T04:53:58.147Z,63.06
2018-04-10T04:54:38.725Z,63.06
2018-04-10T04:55:19.285Z,62.77
2018-04-10T04:55:59.837Z,62.59
2018-04-10T04:56:40.555Z,62.4
2018-04-10T04:57:21.278Z,62.49
2018-04-10T04:58:01.727Z,62.49
2018-04-10T04:58:42.282Z,62.49
2018-04-10T04:59:22.836Z,62.59
2018-04-10T05:00:03.400Z,62.68
2018-04-10T05:00:43.957Z,62.87
2018-04-10T05:01:24.611Z,63.16
2018-04-10T05:02:05.279Z,63.16
2018-04-10T05:02:46.003Z,63.06
2018-04-10T05:03:26.571Z,62.97
2018-04-10T05:04:07.162Z,63.06
2018-04-10T05:04:47.709Z,63.16
2018-04-10T05:05:28.279Z,63.35
2018-04-10T05:06:09.002Z,63.06
2018-04-10T05:06:49.580Z,62.59
2018-04-10T05:07:30.124Z,62.68
2018-04-10T05:08:10.696Z,62.59
2018-04-10T05:08:51.325Z,63.06
2018-04-10T05:09:32.126Z,63.06
2018-04-10T05:10:12.711Z,62.77
2018-04-10T05:10:53.274Z,63.16
2018-04-10T05:11:33.834Z,62.97
2018-04-10T05:12:14.424Z,63.45
2018-04-10T05:12:54.991Z,63.23
2018-04-10T05:13:35.662Z,63.89
2018-04-10T05:14:16.260Z,63.89
2018-04-10T05:14:56.823Z,64.56
2018-04-10T05:15:37.459Z,63.89
2018-04-10T05:16:18.029Z,64.09
2018-04-10T05:16:58.578Z,63.99
2018-04-10T05:17:39.245Z,64.18
2018-04-10T05:18:19.999Z,64.56
2018-04-10T05:19:00.604Z,64.47
2018-04-10T05:19:41.288Z,64.28
2018-04-10T05:20:21.829Z,64.75
2018-04-10T05:21:02.388Z,64.91
2018-04-10T05:21:42.996Z,65.3
2018-04-10T05:22:23.765Z,65.3
2018-04-10T05:23:04.343Z,65.2
2018-04-10T05:23:44.898Z,65.68
2018-04-10T05:24:25.500Z,65.58
2018-04-10T05:25:06.060Z,65.87
2018-04-10T05:25:46.620Z,65.87
2018-04-10T05:26:27.371Z,65.77
2018-04-10T05:27:07.959Z,65.68
2018-04-10T05:27:48.533Z,65.87
2018-04-10T05:28:29.100Z,65.97
2018-04-10T05:29:09.739Z,65.68
2018-04-10T05:29:50.332Z,66.16
2018-04-10T05:30:30.938Z,65.97
2018-04-10T05:31:11.545Z,66.06
2018-04-10T05:31:52.137Z,66.16
2018-04-10T05:32:32.678Z,66.16
2018-04-10T05:33:13.259Z,66.16
2018-04-10T05:33:53.855Z,66.25
2018-04-10T05:34:34.433Z,65.97
2018-04-10T05:35:15.086Z,66.35
2018-04-10T05:35:55.679Z,66.06
2018-04-10T05:36:36.263Z,65.87
2018-04-10T05:37:16.841Z,66.44
2018-04-10T05:37:57.391Z,66.35
2018-04-10T05:38:37.954Z,66.16
2018-04-10T05:39:18.506Z,66.25
2018-04-10T05:39:59.056Z,66.35
2018-04-10T05:40:39.739Z,65.97
2018-04-10T05:41:20.312Z,66.06
2018-04-10T05:42:00.899Z,66.35
2018-04-10T05:42:41.479Z,66.06
2018-04-10T05:43:22.095Z,66.06
2018-04-10T05:44:02.954Z,65.97
2018-04-10T05:44:43.617Z,66.16
2018-04-10T05:45:24.222Z,66.25
2018-04-10T05:46:04.814Z,65.97
2018-04-10T05:46:45.387Z,66.16
2018-04-10T05:47:25.989Z,66.35
2018-04-10T05:48:06.612Z,65.87
2018-04-10T05:48:47.368Z,65.97
2018-04-10T05:49:28.421Z,65.97
2018-04-10T05:50:09.001Z,66.44
2018-04-10T05:50:49.690Z,66.35
2018-04-10T05:51:30.403Z,65.77
2018-04-10T05:52:11.056Z,65.87
2018-04-10T05:52:51.921Z,66.35
2018-04-10T05:53:32.498Z,66.44
2018-04-10T05:54:13.082Z,66.44
2018-04-10T05:54:53.637Z,66.44
2018-04-10T05:55:34.197Z,66.25
2018-04-10T05:56:14.855Z,66.16
2018-04-10T05:56:55.430Z,66.06
2018-04-10T05:57:36.004Z,66.63
2018-04-10T05:58:16.572Z,66.63
2018-04-10T05:58:57.196Z,66.63
2018-04-10T05:59:38.828Z,66.63
2018-04-10T06:00:19.872Z,66.63
2018-04-10T06:01:01.074Z,66.06
2018-04-10T06:01:41.626Z,66.54
2018-04-10T06:02:22.280Z,66.44
2018-04-10T06:03:02.872Z,66.44
2018-04-10T06:03:43.438Z,65.87
2018-04-10T06:04:24.258Z,66.25
2018-04-10T06:05:04.915Z,66.06
2018-04-10T06:05:45.498Z,66.25
2018-04-10T06:06:26.085Z,66.16
2018-04-10T06:07:06.712Z,66.16
2018-04-10T06:07:47.320Z,66.25
2018-04-10T06:08:27.915Z,66.16
2018-04-10T06:09:08.626Z,65.87
2018-04-10T06:09:49.424Z,65.97
2018-04-10T06:10:30.000Z,66.16
2018-04-10T06:11:10.567Z,65.87
2018-04-10T06:11:52.903Z,65.68
2018-04-10T06:12:32.787Z,65.97
2018-04-10T06:13:13.387Z,65.77
2018-04-10T06:13:54.001Z,65.97
2018-04-10T06:14:34.712Z,66.16
2018-04-10T06:15:15.352Z,65.97
2018-04-10T06:15:56.035Z,65.81
2018-04-10T06:16:36.601Z,65.87
2018-04-10T06:17:17.185Z,65.9
2018-04-10T06:17:57.764Z,65.71
2018-04-10T06:18:38.328Z,65.14
2018-04-10T06:19:19.038Z,65.14
2018-04-10T06:19:59.485Z,65.2
2018-04-10T06:20:40.059Z,65.14
2018-04-10T06:21:20.659Z,65.42
2018-04-10T06:22:01.202Z,65.42
2018-04-10T06:22:41.767Z,65.23
2018-04-10T06:23:22.340Z,65.42
2018-04-10T06:24:02.894Z,65.33
2018-04-10T06:24:43.455Z,64.66
2018-04-10T06:25:24.015Z,64.95
2018-04-10T06:26:04.587Z,64.95
2018-04-10T06:26:45.160Z,64.95
2018-04-10T06:27:25.730Z,64.56
2018-04-10T06:28:06.319Z,64.66
2018-04-10T06:28:47.026Z,64.75
2018-04-10T06:29:27.588Z,64.47
2018-04-10T06:30:08.148Z,64.66
2018-04-10T06:30:48.724Z,64.37
2018-04-10T06:31:29.326Z,63.99
2018-04-10T06:32:09.902Z,64.22
2018-04-10T06:32:50.475Z,64.12
2018-04-10T06:33:31.167Z,64.12
2018-04-10T06:34:11.727Z,63.26
2018-04-10T06:34:52.293Z,63.16
2018-04-10T06:35:32.895Z,63.48
2018-04-10T06:36:13.470Z,62.81
2018-04-10T06:36:54.152Z,62.71
2018-04-10T06:37:34.732Z,62.33
2018-04-10T06:38:15.292Z,61.76
2018-04-10T06:38:55.880Z,61.31
2018-04-10T06:39:36.471Z,61.31
2018-04-10T06:40:17.030Z,60.44
2018-04-10T06:40:57.615Z,60.44
2018-04-10T06:41:38.271Z,59.68
2018-04-10T06:42:19.063Z,59.58
2018-04-10T06:42:59.623Z,59.11
2018-04-10T06:43:40.203Z,59.33
2018-04-10T06:44:20.799Z,58.65
2018-04-10T06:45:01.391Z,58.84
2018-04-10T06:45:42.008Z,58.56
2018-04-10T06:46:22.675Z,58.46
2018-04-10T06:47:03.200Z,58.27
2018-04-10T06:47:43.815Z,57.79
2018-04-10T06:48:24.381Z,58.17
2018-04-10T06:49:05.020Z,57.72
2018-04-10T06:49:45.588Z,57.34
2018-04-10T06:50:26.138Z,57.06
2018-04-10T06:51:06.729Z,57.34
2018-04-10T06:51:47.305Z,57.24
2018-04-10T06:52:27.873Z,56.96
2018-04-10T06:53:08.450Z,56.96
2018-04-10T06:53:49.024Z,56.57
2018-04-10T06:54:29.605Z,56.19
2018-04-10T06:55:10.174Z,56.41
2018-04-10T06:55:50.804Z,56.41
2018-04-10T06:56:31.389Z,56.22
2018-04-10T06:57:11.962Z,55.64
2018-04-10T06:57:52.533Z,55.45
2018-04-10T06:58:33.132Z,55.64
2018-04-10T06:59:13.699Z,54.78
2018-04-10T06:59:54.272Z,54.49
2018-04-10T07:00:34.958Z,54.58
2018-04-10T07:01:15.547Z,54.49
2018-04-10T07:01:56.113Z,54.49
2018-04-10T07:02:36.695Z,54.68
2018-04-10T07:03:17.271Z,55.07
2018-04-10T07:03:57.904Z,54.78
2018-04-10T07:04:38.629Z,55
2018-04-10T07:05:19.138Z,54.9
2018-04-10T07:05:59.719Z,54.71
2018-04-10T07:06:40.291Z,53.75
2018-04-10T07:07:20.922Z,53.36
2018-04-10T07:08:01.540Z,53.46
2018-04-10T07:08:42.072Z,53.36
2018-04-10T07:09:22.807Z,53.36
2018-04-10T07:10:03.388Z,52.91
2018-04-10T07:10:44.004Z,53.2
2018-04-10T07:11:24.540Z,53.11
2018-04-10T07:12:05.161Z,52.53
2018-04-10T07:12:45.765Z,52.72
2018-04-10T07:13:26.489Z,52.24
2018-04-10T07:14:06.977Z,52.08
2018-04-10T07:14:47.556Z,52.17
2018-04-10T07:15:28.191Z,52.26
2018-04-10T07:16:08.877Z,52.26
2018-04-10T07:16:49.476Z,51.21
2018-04-10T07:17:33.002Z,51.4
2018-04-10T07:18:13.591Z,51.21
2018-04-10T07:18:54.170Z,51.31
2018-04-10T07:19:34.847Z,50.54
2018-04-10T07:20:15.441Z,50.92
2018-04-10T07:20:56.072Z,51.02
2018-04-10T07:21:36.598Z,51.11
2018-04-10T07:22:17.208Z,51.11
2018-04-10T07:22:57.767Z,51.02
2018-04-10T07:23:38.348Z,51.21
2018-04-10T07:24:19.282Z,50.82
2018-04-10T07:24:59.908Z,50.66
2018-04-10T07:25:40.511Z,50.66
2018-04-10T07:26:21.099Z,50.37
2018-04-10T07:27:01.742Z,50.37
2018-04-10T07:27:42.381Z,50.08
2018-04-10T07:28:22.920Z,50.01
2018-04-10T07:29:03.581Z,49.43
2018-04-10T07:29:44.167Z,49.43
2018-04-10T07:30:24.750Z,48.66
2018-04-10T07:31:05.419Z,48.66
2018-04-10T07:31:45.988Z,48.28
2018-04-10T07:32:26.579Z,48.38
2018-04-10T07:33:07.350Z,48.18
2018-04-10T07:33:47.751Z,48.66
2018-04-10T07:34:28.337Z,48.49
2018-04-10T07:35:08.943Z,48.18
2018-04-10T07:35:49.614Z,47.72
2018-04-10T07:36:30.222Z,48.57
2018-04-10T07:37:10.794Z,48.69
2018-04-10T07:37:51.545Z,48.3
2018-04-10T07:38:32.160Z,48.21
2018-04-10T07:39:12.731Z,48.21
2018-04-10T07:40:00.499Z,47.72
2018-04-10T07:40:41.087Z,48.02
2018-04-10T07:41:21.691Z,47.53
2018-04-10T07:42:02.288Z,47.05
2018-04-10T07:42:43.005Z,47.92
2018-04-10T07:43:23.807Z,47.82
2018-04-10T07:44:04.557Z,47.15
2018-04-10T07:44:45.171Z,47.82
2018-04-10T07:45:25.756Z,47.82
2018-04-10T07:46:06.321Z,47.72
2018-04-10T07:46:46.895Z,47.15
2018-04-10T07:47:27.551Z,47.85
2018-04-10T07:48:08.328Z,47.17
2018-04-10T07:48:48.894Z,46.78
2018-04-10T07:49:29.475Z,46.5
2018-04-10T07:50:10.038Z,46.59
2018-04-10T07:50:50.685Z,46.69
2018-04-10T07:51:31.290Z,46.71
2018-04-10T07:52:11.887Z,46.62
2018-04-10T07:52:52.538Z,45.75
2018-04-10T07:53:33.119Z,45.84
2018-04-10T07:54:13.694Z,45.36
2018-04-10T07:54:54.309Z,45.75
2018-04-10T07:55:34.878Z,45.56
2018-04-10T07:56:15.572Z,45.56
2018-04-10T07:56:56.225Z,44.79
2018-04-10T07:57:36.757Z,45.27
2018-04-10T07:58:17.343Z,45.17
2018-04-10T07:58:57.922Z,44.69
2018-04-10T07:59:38.499Z,45.27
2018-04-10T08:00:19.080Z,45.36
2018-04-10T08:00:59.661Z,45.36
2018-04-10T08:01:40.235Z,44.98
2018-04-10T08:02:20.836Z,44.69
2018-04-10T08:03:01.400Z,45.17
2018-04-10T08:03:41.961Z,45.27
2018-04-10T08:04:22.545Z,44.79
2018-04-10T08:05:03.127Z,44.98
2018-04-10T08:05:43.707Z,45.46
2018-04-10T08:06:24.292Z,45.36
2018-04-10T08:07:04.863Z,45.07
2018-04-10T08:07:45.454Z,44.69
2018-04-10T08:08:26.062Z,45.27
2018-04-10T08:09:06.635Z,46.14
2018-04-10T08:09:47.217Z,45.75
2018-04-10T08:10:27.808Z,45.27
2018-04-10T08:11:08.386Z,45.75
2018-04-10T08:11:49.006Z,45.27
2018-04-10T08:12:29.617Z,45.94
2018-04-10T08:13:10.219Z,45.84
2018-04-10T08:13:50.784Z,46.14
2018-04-10T08:14:31.431Z,46.42
2018-04-10T08:15:11.998Z,46.62
2018-04-10T08:15:52.580Z,46.62
2018-04-10T08:16:33.161Z,46.62
2018-04-10T08:17:13.763Z,46.91
2018-04-10T08:17:54.337Z,46.62
2018-04-10T08:18:34.917Z,46.42
2018-04-10T08:19:15.600Z,45.75
2018-04-10T08:19:56.202Z,45.75
2018-04-10T08:20:36.789Z,45.84
2018-04-10T08:21:17.376Z,45.36
2018-04-10T08:21:58.135Z,45.75
2018-04-10T08:22:38.726Z,45.65
2018-04-10T08:23:19.280Z,45.94
2018-04-10T08:23:59.897Z,46.23
2018-04-10T08:24:40.467Z,46.62
2018-04-10T08:25:21.027Z,46.42
2018-04-10T08:26:01.656Z,47
2018-04-10T08:26:42.216Z,46.81
2018-04-10T08:27:22.896Z,46.71
2018-04-10T08:28:03.489Z,46.81
2018-04-10T08:28:44.119Z,45.75
2018-04-10T08:29:24.703Z,45.94
2018-04-10T08:30:05.285Z,45.75
2018-04-10T08:30:45.859Z,46.62
2018-04-10T08:31:26.420Z,45.07
2018-04-10T08:32:07.065Z,45.36
2018-04-10T08:32:47.640Z,45.75
2018-04-10T08:33:28.248Z,45.84
2018-04-10T08:34:08.825Z,45.75
2018-04-10T08:34:49.394Z,46.04
2018-04-10T08:35:29.962Z,45.94
2018-04-10T08:36:10.528Z,46.04
2018-04-10T08:36:51.170Z,46.14
2018-04-10T08:37:31.950Z,45.75
2018-04-10T08:38:12.454Z,45.94
2018-04-10T08:38:53.067Z,45.84
2018-04-10T08:39:33.690Z,46.52
2018-04-10T08:40:14.337Z,47.1
2018-04-10T08:40:54.910Z,46.52
2018-04-10T08:41:35.500Z,46.04
2018-04-10T08:42:16.190Z,46.83
2018-04-10T08:42:56.754Z,45.77
2018-04-10T08:43:37.322Z,45.77
2018-04-10T08:44:17.891Z,45.58
2018-04-10T08:44:58.497Z,45.87
2018-04-10T08:45:39.111Z,45.97
2018-04-10T08:46:19.690Z,46.06
2018-04-10T08:47:00.351Z,45.97
2018-04-10T08:47:40.950Z,45.97
2018-04-10T08:48:21.527Z,45.58
2018-04-10T08:49:02.115Z,45.97
2018-04-10T08:49:42.850Z,45.77
2018-04-10T08:50:23.436Z,45.68